sensor_id;sensor_type;location;lat;lon;timestamp;temperature;humidity
21676;DHT22;10999;51.332;9.458;2023-02-14T00:00:43;0.40;98.90
21676;DHT22;10999;51.332;9.458;2023-02-14T00:03:09;0.30;98.90
21676;DHT22;10999;51.332;9.458;2023-02-14T00:05:36;0.40;98.90
21676;DHT22;10999;51.332;9.458;2023-02-14T00:08:03;0.30;98.90
21676;DHT22;10999;51.332;9.458;2023-02-14T00:10:30;0.30;99.60
21676;DHT22;10999;51.332;9.458;2023-02-14T00:12:56;0.30;98.90
21676;DHT22;10999;51.332;9.458;2023-02-14T00:15:26;0.20;98.80
21676;DHT22;10999;51.332;9.458;2023-02-14T00:17:55;0.20;98.70
21676;DHT22;10999;51.332;9.458;2023-02-14T00:20:22;0.10;98.70
21676;DHT22;10999;51.332;9.458;2023-02-14T00:22:49;0.10;98.80
21676;DHT22;10999;51.332;9.458;2023-02-14T00:25:16;0.10;99.60
21676;DHT22;10999;51.332;9.458;2023-02-14T00:27:43;0.10;98.80
21676;DHT22;10999;51.332;9.458;2023-02-14T00:30:12;0.00;98.80
21676;DHT22;10999;51.332;9.458;2023-02-14T00:32:40;0.00;98.80
21676;DHT22;10999;51.332;9.458;2023-02-14T00:35:08;0.00;98.90
21676;DHT22;10999;51.332;9.458;2023-02-14T00:37:35;0.00;98.90
21676;DHT22;10999;51.332;9.458;2023-02-14T00:40:03;0.00;98.90
21676;DHT22;10999;51.332;9.458;2023-02-14T00:42:30;-0.10;98.90
21676;DHT22;10999;51.332;9.458;2023-02-14T00:44:57;-0.10;98.90
21676;DHT22;10999;51.332;9.458;2023-02-14T00:47:24;-0.10;98.90
21676;DHT22;10999;51.332;9.458;2023-02-14T00:49:51;-0.10;98.90
21676;DHT22;10999;51.332;9.458;2023-02-14T00:52:18;-0.10;99.00
21676;DHT22;10999;51.332;9.458;2023-02-14T00:54:45;-0.10;99.00
21676;DHT22;10999;51.332;9.458;2023-02-14T00:57:11;-0.20;99.00
21676;DHT22;10999;51.332;9.458;2023-02-14T00:59:38;-0.20;99.00
21676;DHT22;10999;51.332;9.458;2023-02-14T01:02:05;-0.20;99.00
21676;DHT22;10999;51.332;9.458;2023-02-14T01:04:31;-0.20;99.00
21676;DHT22;10999;51.332;9.458;2023-02-14T01:06:58;-0.20;99.10
21676;DHT22;10999;51.332;9.458;2023-02-14T01:09:25;-0.20;99.10
21676;DHT22;10999;51.332;9.458;2023-02-14T01:11:52;-0.20;99.10
21676;DHT22;10999;51.332;9.458;2023-02-14T01:14:18;-0.20;99.10
21676;DHT22;10999;51.332;9.458;2023-02-14T01:16:45;-0.20;99.00
21676;DHT22;10999;51.332;9.458;2023-02-14T01:19:12;-0.30;99.10
21676;DHT22;10999;51.332;9.458;2023-02-14T01:21:39;-0.30;99.10
21676;DHT22;10999;51.332;9.458;2023-02-14T01:24:07;-0.30;99.10
21676;DHT22;10999;51.332;9.458;2023-02-14T01:26:34;-0.40;99.00
21676;DHT22;10999;51.332;9.458;2023-02-14T01:29:02;-0.40;99.10
21676;DHT22;10999;51.332;9.458;2023-02-14T01:31:31;-0.40;99.10
21676;DHT22;10999;51.332;9.458;2023-02-14T01:33:58;-0.40;99.10
21676;DHT22;10999;51.332;9.458;2023-02-14T01:36:28;-0.40;99.10
21676;DHT22;10999;51.332;9.458;2023-02-14T01:38:57;-0.50;99.10
21676;DHT22;10999;51.332;9.458;2023-02-14T01:41:27;-0.50;99.10
21676;DHT22;10999;51.332;9.458;2023-02-14T01:46:43;-0.50;99.20
21676;DHT22;10999;51.332;9.458;2023-02-14T01:51:44;-0.50;99.20
21676;DHT22;10999;51.332;9.458;2023-02-14T01:54:11;-0.60;99.10
21676;DHT22;10999;51.332;9.458;2023-02-14T01:56:44;-0.60;99.10
21676;DHT22;10999;51.332;9.458;2023-02-14T01:59:14;-0.60;99.10
21676;DHT22;10999;51.332;9.458;2023-02-14T02:01:41;-0.60;99.10
21676;DHT22;10999;51.332;9.458;2023-02-14T02:04:16;-0.60;99.20
21676;DHT22;10999;51.332;9.458;2023-02-14T02:06:51;-0.60;99.20
21676;DHT22;10999;51.332;9.458;2023-02-14T02:09:24;-0.60;99.20
21676;DHT22;10999;51.332;9.458;2023-02-14T02:11:52;-0.70;99.20
21676;DHT22;10999;51.332;9.458;2023-02-14T02:14:21;-0.70;99.20
21676;DHT22;10999;51.332;9.458;2023-02-14T02:17:07;-0.70;99.20
21676;DHT22;10999;51.332;9.458;2023-02-14T02:20:02;-0.70;99.20
21676;DHT22;10999;51.332;9.458;2023-02-14T02:30:55;-0.80;99.20
21676;DHT22;10999;51.332;9.458;2023-02-14T02:39:09;-0.80;99.20
21676;DHT22;10999;51.332;9.458;2023-02-14T02:41:52;-0.80;99.20
21676;DHT22;10999;51.332;9.458;2023-02-14T02:44:40;-0.90;99.20
21676;DHT22;10999;51.332;9.458;2023-02-14T02:50:11;-0.90;99.30
21676;DHT22;10999;51.332;9.458;2023-02-14T02:53:23;-0.90;99.30
21676;DHT22;10999;51.332;9.458;2023-02-14T02:55:54;-0.90;99.30
21676;DHT22;10999;51.332;9.458;2023-02-14T03:01:21;-0.90;99.30
21676;DHT22;10999;51.332;9.458;2023-02-14T03:03:54;-0.90;99.20
21676;DHT22;10999;51.332;9.458;2023-02-14T03:06:40;-1.00;99.20
21676;DHT22;10999;51.332;9.458;2023-02-14T03:14:48;-1.00;99.30
21676;DHT22;10999;51.332;9.458;2023-02-14T03:17:28;-1.00;99.20
21676;DHT22;10999;51.332;9.458;2023-02-14T03:20:06;-1.10;99.10
21676;DHT22;10999;51.332;9.458;2023-02-14T03:23:08;-1.00;99.20
21676;DHT22;10999;51.332;9.458;2023-02-14T03:31:13;-1.10;99.30
21676;DHT22;10999;51.332;9.458;2023-02-14T03:34:32;-1.10;99.30
21676;DHT22;10999;51.332;9.458;2023-02-14T03:36:52;-1.10;99.90
21676;DHT22;10999;51.332;9.458;2023-02-14T03:39:25;-1.10;99.40
21676;DHT22;10999;51.332;9.458;2023-02-14T03:41:58;-1.00;99.40
21676;DHT22;10999;51.332;9.458;2023-02-14T03:44:33;-1.00;99.50
21676;DHT22;10999;51.332;9.458;2023-02-14T03:47:12;-1.00;99.50
21676;DHT22;10999;51.332;9.458;2023-02-14T03:49:52;-0.90;99.70
21676;DHT22;10999;51.332;9.458;2023-02-14T03:52:21;-0.90;99.60
21676;DHT22;10999;51.332;9.458;2023-02-14T03:54:51;-0.90;99.60
21676;DHT22;10999;51.332;9.458;2023-02-14T03:57:27;-0.90;99.60
21676;DHT22;10999;51.332;9.458;2023-02-14T03:59:55;-0.80;99.70
21676;DHT22;10999;51.332;9.458;2023-02-14T04:05:21;-0.80;99.80
21676;DHT22;10999;51.332;9.458;2023-02-14T04:07:51;-0.80;99.80
21676;DHT22;10999;51.332;9.458;2023-02-14T04:10:19;-0.80;99.90
21676;DHT22;10999;51.332;9.458;2023-02-14T04:12:47;-0.70;99.90
21676;DHT22;10999;51.332;9.458;2023-02-14T04:15:14;-0.80;99.80
21676;DHT22;10999;51.332;9.458;2023-02-14T04:17:41;-0.70;99.90
21676;DHT22;10999;51.332;9.458;2023-02-14T04:20:27;-0.80;99.90
21676;DHT22;10999;51.332;9.458;2023-02-14T04:22:54;-0.80;99.90
21676;DHT22;10999;51.332;9.458;2023-02-14T04:25:21;-0.80;99.90
21676;DHT22;10999;51.332;9.458;2023-02-14T04:27:48;-0.70;99.90
21676;DHT22;10999;51.332;9.458;2023-02-14T04:30:15;-0.70;99.90
21676;DHT22;10999;51.332;9.458;2023-02-14T04:32:43;-0.70;99.90
21676;DHT22;10999;51.332;9.458;2023-02-14T04:35:10;-0.70;99.90
21676;DHT22;10999;51.332;9.458;2023-02-14T04:37:37;-0.70;99.90
21676;DHT22;10999;51.332;9.458;2023-02-14T04:40:05;-0.70;99.90
21676;DHT22;10999;51.332;9.458;2023-02-14T04:42:32;-0.70;99.90
21676;DHT22;10999;51.332;9.458;2023-02-14T04:44:59;-0.60;99.90
21676;DHT22;10999;51.332;9.458;2023-02-14T04:47:29;-0.60;99.90
21676;DHT22;10999;51.332;9.458;2023-02-14T04:49:56;-0.70;99.90
21676;DHT22;10999;51.332;9.458;2023-02-14T04:52:23;-0.60;99.90
21676;DHT22;10999;51.332;9.458;2023-02-14T04:54:49;-0.60;99.90
21676;DHT22;10999;51.332;9.458;2023-02-14T04:57:16;-0.60;99.90
21676;DHT22;10999;51.332;9.458;2023-02-14T04:59:43;-0.60;99.90
21676;DHT22;10999;51.332;9.458;2023-02-14T05:02:10;-0.60;99.90
21676;DHT22;10999;51.332;9.458;2023-02-14T05:04:37;-0.50;99.90
21676;DHT22;10999;51.332;9.458;2023-02-14T05:07:03;-0.50;99.90
21676;DHT22;10999;51.332;9.458;2023-02-14T05:09:30;-0.50;99.90
21676;DHT22;10999;51.332;9.458;2023-02-14T05:11:57;-0.50;99.90
21676;DHT22;10999;51.332;9.458;2023-02-14T05:14:24;-0.50;99.90
21676;DHT22;10999;51.332;9.458;2023-02-14T05:16:51;-0.50;99.90
21676;DHT22;10999;51.332;9.458;2023-02-14T05:19:17;-0.50;99.90
21676;DHT22;10999;51.332;9.458;2023-02-14T05:21:44;-0.50;99.90
21676;DHT22;10999;51.332;9.458;2023-02-14T05:24:11;-0.50;99.90
21676;DHT22;10999;51.332;9.458;2023-02-14T05:26:37;-0.50;99.90
21676;DHT22;10999;51.332;9.458;2023-02-14T05:29:04;-0.50;99.90
21676;DHT22;10999;51.332;9.458;2023-02-14T05:31:31;-0.50;99.90
21676;DHT22;10999;51.332;9.458;2023-02-14T05:33:58;-0.50;99.90
21676;DHT22;10999;51.332;9.458;2023-02-14T05:36:25;-0.50;99.90
21676;DHT22;10999;51.332;9.458;2023-02-14T05:38:52;-0.50;99.90
21676;DHT22;10999;51.332;9.458;2023-02-14T05:41:19;-0.50;99.90
21676;DHT22;10999;51.332;9.458;2023-02-14T05:43:46;-0.50;99.90
21676;DHT22;10999;51.332;9.458;2023-02-14T05:46:12;-0.50;99.90
21676;DHT22;10999;51.332;9.458;2023-02-14T05:48:39;-0.40;99.90
21676;DHT22;10999;51.332;9.458;2023-02-14T05:51:08;-0.50;99.90
21676;DHT22;10999;51.332;9.458;2023-02-14T05:53:35;-0.40;99.90
21676;DHT22;10999;51.332;9.458;2023-02-14T05:56:02;-0.50;99.90
21676;DHT22;10999;51.332;9.458;2023-02-14T05:58:29;-0.40;99.90
21676;DHT22;10999;51.332;9.458;2023-02-14T06:00:56;-0.40;99.90
21676;DHT22;10999;51.332;9.458;2023-02-14T06:03:24;-0.40;99.90
21676;DHT22;10999;51.332;9.458;2023-02-14T06:05:51;-0.40;99.90
21676;DHT22;10999;51.332;9.458;2023-02-14T06:08:17;-0.40;99.90
21676;DHT22;10999;51.332;9.458;2023-02-14T06:10:45;-0.40;99.90
21676;DHT22;10999;51.332;9.458;2023-02-14T06:13:12;-0.40;99.90
21676;DHT22;10999;51.332;9.458;2023-02-14T06:15:39;-0.40;99.90
21676;DHT22;10999;51.332;9.458;2023-02-14T06:18:05;-0.40;99.90
21676;DHT22;10999;51.332;9.458;2023-02-14T06:20:32;-0.40;99.90
21676;DHT22;10999;51.332;9.458;2023-02-14T06:22:59;-0.40;99.90
21676;DHT22;10999;51.332;9.458;2023-02-14T06:25:27;-0.40;99.90
21676;DHT22;10999;51.332;9.458;2023-02-14T06:27:57;-0.40;99.90
21676;DHT22;10999;51.332;9.458;2023-02-14T06:30:25;-0.50;99.90
21676;DHT22;10999;51.332;9.458;2023-02-14T06:32:52;-0.50;99.90
21676;DHT22;10999;51.332;9.458;2023-02-14T06:35:19;-0.40;99.90
21676;DHT22;10999;51.332;9.458;2023-02-14T06:37:45;-0.50;99.90
21676;DHT22;10999;51.332;9.458;2023-02-14T06:40:12;-0.40;99.90
21676;DHT22;10999;51.332;9.458;2023-02-14T06:42:39;-0.40;99.90
21676;DHT22;10999;51.332;9.458;2023-02-14T06:45:07;-0.40;99.90
21676;DHT22;10999;51.332;9.458;2023-02-14T06:47:33;-0.40;99.90
21676;DHT22;10999;51.332;9.458;2023-02-14T06:50:01;-0.50;99.90
21676;DHT22;10999;51.332;9.458;2023-02-14T06:52:31;-0.50;99.90
21676;DHT22;10999;51.332;9.458;2023-02-14T06:54:57;-0.50;99.90
21676;DHT22;10999;51.332;9.458;2023-02-14T06:57:24;-0.50;99.90
21676;DHT22;10999;51.332;9.458;2023-02-14T06:59:51;-0.50;99.90
21676;DHT22;10999;51.332;9.458;2023-02-14T07:02:18;-0.50;99.90
21676;DHT22;10999;51.332;9.458;2023-02-14T07:04:45;-0.50;99.90
21676;DHT22;10999;51.332;9.458;2023-02-14T07:07:11;-0.40;99.90
21676;DHT22;10999;51.332;9.458;2023-02-14T07:09:38;-0.40;99.90
21676;DHT22;10999;51.332;9.458;2023-02-14T07:12:05;-0.30;99.90
21676;DHT22;10999;51.332;9.458;2023-02-14T07:14:32;-0.40;99.90
21676;DHT22;10999;51.332;9.458;2023-02-14T07:16:59;-0.30;99.90
21676;DHT22;10999;51.332;9.458;2023-02-14T07:19:25;-0.30;99.90
21676;DHT22;10999;51.332;9.458;2023-02-14T07:21:52;-0.30;99.90
21676;DHT22;10999;51.332;9.458;2023-02-14T07:24:19;-0.30;99.90
21676;DHT22;10999;51.332;9.458;2023-02-14T07:26:46;-0.40;99.90
21676;DHT22;10999;51.332;9.458;2023-02-14T07:29:12;-0.40;99.90
21676;DHT22;10999;51.332;9.458;2023-02-14T07:31:39;-0.30;99.90
21676;DHT22;10999;51.332;9.458;2023-02-14T07:34:06;-0.30;99.90
21676;DHT22;10999;51.332;9.458;2023-02-14T07:36:33;-0.30;99.90
21676;DHT22;10999;51.332;9.458;2023-02-14T07:39:05;-0.20;99.90
21676;DHT22;10999;51.332;9.458;2023-02-14T07:41:32;-0.20;99.90
21676;DHT22;10999;51.332;9.458;2023-02-14T07:43:58;-0.10;99.90
21676;DHT22;10999;51.332;9.458;2023-02-14T07:46:25;0.00;99.90
21676;DHT22;10999;51.332;9.458;2023-02-14T07:48:52;0.00;99.90
21676;DHT22;10999;51.332;9.458;2023-02-14T07:51:19;0.00;99.90
21676;DHT22;10999;51.332;9.458;2023-02-14T07:53:46;0.10;99.90
21676;DHT22;10999;51.332;9.458;2023-02-14T07:56:12;0.10;99.90
21676;DHT22;10999;51.332;9.458;2023-02-14T07:58:39;0.20;99.90
21676;DHT22;10999;51.332;9.458;2023-02-14T08:01:06;0.30;99.90
21676;DHT22;10999;51.332;9.458;2023-02-14T08:03:33;0.30;99.90
21676;DHT22;10999;51.332;9.458;2023-02-14T08:06:00;0.40;99.90
21676;DHT22;10999;51.332;9.458;2023-02-14T08:08:28;0.50;99.90
21676;DHT22;10999;51.332;9.458;2023-02-14T08:10:56;0.50;99.90
21676;DHT22;10999;51.332;9.458;2023-02-14T08:13:23;0.50;99.90
21676;DHT22;10999;51.332;9.458;2023-02-14T08:15:50;0.50;99.90
21676;DHT22;10999;51.332;9.458;2023-02-14T08:18:35;0.60;99.90
21676;DHT22;10999;51.332;9.458;2023-02-14T08:21:03;0.70;99.90
21676;DHT22;10999;51.332;9.458;2023-02-14T08:23:30;0.70;99.90
21676;DHT22;10999;51.332;9.458;2023-02-14T08:25:56;0.70;99.90
21676;DHT22;10999;51.332;9.458;2023-02-14T08:28:24;0.70;99.90
21676;DHT22;10999;51.332;9.458;2023-02-14T08:30:52;0.70;99.90
21676;DHT22;10999;51.332;9.458;2023-02-14T08:33:19;0.80;99.90
21676;DHT22;10999;51.332;9.458;2023-02-14T08:35:46;0.90;99.90
21676;DHT22;10999;51.332;9.458;2023-02-14T08:38:13;1.00;99.90
21676;DHT22;10999;51.332;9.458;2023-02-14T08:40:40;1.10;99.90
21676;DHT22;10999;51.332;9.458;2023-02-14T08:43:07;1.20;99.90
21676;DHT22;10999;51.332;9.458;2023-02-14T08:45:35;1.30;99.90
21676;DHT22;10999;51.332;9.458;2023-02-14T08:48:07;1.20;99.90
21676;DHT22;10999;51.332;9.458;2023-02-14T08:50:35;1.20;99.90
21676;DHT22;10999;51.332;9.458;2023-02-14T08:53:10;1.20;99.90
21676;DHT22;10999;51.332;9.458;2023-02-14T08:55:39;1.30;99.90
21676;DHT22;10999;51.332;9.458;2023-02-14T08:58:06;1.40;99.90
21676;DHT22;10999;51.332;9.458;2023-02-14T09:00:33;1.40;99.90
21676;DHT22;10999;51.332;9.458;2023-02-14T09:03:00;1.40;99.90
21676;DHT22;10999;51.332;9.458;2023-02-14T09:05:27;1.50;99.90
21676;DHT22;10999;51.332;9.458;2023-02-14T09:07:54;1.70;99.90
21676;DHT22;10999;51.332;9.458;2023-02-14T09:10:23;1.90;99.90
21676;DHT22;10999;51.332;9.458;2023-02-14T09:12:50;2.10;99.90
21676;DHT22;10999;51.332;9.458;2023-02-14T09:15:17;2.20;99.90
21676;DHT22;10999;51.332;9.458;2023-02-14T09:17:44;2.20;99.90
21676;DHT22;10999;51.332;9.458;2023-02-14T09:20:12;2.40;99.90
21676;DHT22;10999;51.332;9.458;2023-02-14T09:22:39;2.70;99.90
21676;DHT22;10999;51.332;9.458;2023-02-14T09:25:06;2.90;99.90
21676;DHT22;10999;51.332;9.458;2023-02-14T09:27:33;3.00;99.90
21676;DHT22;10999;51.332;9.458;2023-02-14T09:30:00;3.00;98.40
21676;DHT22;10999;51.332;9.458;2023-02-14T09:32:26;3.10;98.80
21676;DHT22;10999;51.332;9.458;2023-02-14T09:34:54;3.00;96.20
21676;DHT22;10999;51.332;9.458;2023-02-14T09:37:21;2.90;94.70
21676;DHT22;10999;51.332;9.458;2023-02-14T09:39:48;3.00;95.30
21676;DHT22;10999;51.332;9.458;2023-02-14T09:44:50;3.50;96.60
21676;DHT22;10999;51.332;9.458;2023-02-14T09:47:27;3.70;95.90
21676;DHT22;10999;51.332;9.458;2023-02-14T09:49:57;3.70;93.40
21676;DHT22;10999;51.332;9.458;2023-02-14T09:52:27;3.70;91.40
21676;DHT22;10999;51.332;9.458;2023-02-14T09:54:59;3.60;90.60
21676;DHT22;10999;51.332;9.458;2023-02-14T09:57:41;3.90;92.30
21676;DHT22;10999;51.332;9.458;2023-02-14T10:00:22;4.40;92.90
21676;DHT22;10999;51.332;9.458;2023-02-14T10:03:19;5.30;93.90
21676;DHT22;10999;51.332;9.458;2023-02-14T10:06:00;5.70;84.80
21676;DHT22;10999;51.332;9.458;2023-02-14T10:11:21;5.70;78.90
21676;DHT22;10999;51.332;9.458;2023-02-14T10:14:15;5.70;79.60
21676;DHT22;10999;51.332;9.458;2023-02-14T10:16:44;5.70;79.30
21676;DHT22;10999;51.332;9.458;2023-02-14T10:19:31;5.60;78.30
21676;DHT22;10999;51.332;9.458;2023-02-14T10:22:11;5.80;81.10
21676;DHT22;10999;51.332;9.458;2023-02-14T10:24:52;6.10;80.40
21676;DHT22;10999;51.332;9.458;2023-02-14T10:29:55;6.30;77.00
21676;DHT22;10999;51.332;9.458;2023-02-14T10:32:39;6.40;75.00
21676;DHT22;10999;51.332;9.458;2023-02-14T10:35:40;6.50;73.80
21676;DHT22;10999;51.332;9.458;2023-02-14T10:41:13;6.30;73.90
21676;DHT22;10999;51.332;9.458;2023-02-14T10:44:03;6.30;72.50
21676;DHT22;10999;51.332;9.458;2023-02-14T10:46:49;6.20;72.30
21676;DHT22;10999;51.332;9.458;2023-02-14T10:54:45;6.90;75.30
21676;DHT22;10999;51.332;9.458;2023-02-14T11:00:13;7.20;70.40
21676;DHT22;10999;51.332;9.458;2023-02-14T11:02:44;7.10;69.30
21676;DHT22;10999;51.332;9.458;2023-02-14T11:05:27;7.10;69.50
21676;DHT22;10999;51.332;9.458;2023-02-14T11:07:56;7.10;71.30
21676;DHT22;10999;51.332;9.458;2023-02-14T11:10:31;7.30;74.30
21676;DHT22;10999;51.332;9.458;2023-02-14T11:12:59;7.50;70.70
21676;DHT22;10999;51.332;9.458;2023-02-14T11:15:38;7.70;69.30
21676;DHT22;10999;51.332;9.458;2023-02-14T11:18:21;7.80;69.20
21676;DHT22;10999;51.332;9.458;2023-02-14T11:21:05;7.80;66.90
21676;DHT22;10999;51.332;9.458;2023-02-14T11:23:45;7.80;67.70
21676;DHT22;10999;51.332;9.458;2023-02-14T11:26:22;8.00;68.20
21676;DHT22;10999;51.332;9.458;2023-02-14T11:29:02;8.20;69.60
21676;DHT22;10999;51.332;9.458;2023-02-14T11:31:32;8.20;66.00
21676;DHT22;10999;51.332;9.458;2023-02-14T11:34:01;8.20;65.70
21676;DHT22;10999;51.332;9.458;2023-02-14T11:36:31;8.40;66.10
21676;DHT22;10999;51.332;9.458;2023-02-14T11:39:15;8.30;65.50
21676;DHT22;10999;51.332;9.458;2023-02-14T11:41:49;8.30;65.20
21676;DHT22;10999;51.332;9.458;2023-02-14T11:44:25;8.50;65.50
21676;DHT22;10999;51.332;9.458;2023-02-14T11:46:54;8.50;66.20
21676;DHT22;10999;51.332;9.458;2023-02-14T11:49:31;8.60;65.40
21676;DHT22;10999;51.332;9.458;2023-02-14T11:52:14;8.80;66.10
21676;DHT22;10999;51.332;9.458;2023-02-14T11:54:46;8.90;66.20
21676;DHT22;10999;51.332;9.458;2023-02-14T11:57:32;9.10;65.20
21676;DHT22;10999;51.332;9.458;2023-02-14T12:00:02;9.10;63.40
21676;DHT22;10999;51.332;9.458;2023-02-14T12:02:44;9.30;63.60
21676;DHT22;10999;51.332;9.458;2023-02-14T12:05:19;9.30;58.80
21676;DHT22;10999;51.332;9.458;2023-02-14T12:07:51;9.40;60.10
21676;DHT22;10999;51.332;9.458;2023-02-14T12:10:23;9.30;59.30
21676;DHT22;10999;51.332;9.458;2023-02-14T12:15:36;9.40;58.60
21676;DHT22;10999;51.332;9.458;2023-02-14T12:26:59;9.50;55.60
21676;DHT22;10999;51.332;9.458;2023-02-14T12:29:44;9.50;55.90
21676;DHT22;10999;51.332;9.458;2023-02-14T12:32:19;9.40;55.80
21676;DHT22;10999;51.332;9.458;2023-02-14T12:34:47;9.30;55.00
21676;DHT22;10999;51.332;9.458;2023-02-14T12:40:49;9.40;54.80
21676;DHT22;10999;51.332;9.458;2023-02-14T12:43:52;9.40;55.00
21676;DHT22;10999;51.332;9.458;2023-02-14T12:57:59;9.70;53.10
21676;DHT22;10999;51.332;9.458;2023-02-14T13:04:01;9.90;52.90
21676;DHT22;10999;51.332;9.458;2023-02-14T13:12:14;10.00;51.50
21676;DHT22;10999;51.332;9.458;2023-02-14T13:15:16;9.90;50.90
21676;DHT22;10999;51.332;9.458;2023-02-14T13:17:55;9.80;52.60
21676;DHT22;10999;51.332;9.458;2023-02-14T13:23:04;9.70;52.40
21676;DHT22;10999;51.332;9.458;2023-02-14T13:25:35;9.60;53.50
21676;DHT22;10999;51.332;9.458;2023-02-14T13:28:05;9.60;54.00
21676;DHT22;10999;51.332;9.458;2023-02-14T13:30:34;9.60;54.30
21676;DHT22;10999;51.332;9.458;2023-02-14T13:35:54;9.50;54.20
21676;DHT22;10999;51.332;9.458;2023-02-14T13:38:23;9.50;55.00
21676;DHT22;10999;51.332;9.458;2023-02-14T13:40:50;9.60;55.30
21676;DHT22;10999;51.332;9.458;2023-02-14T13:46:18;9.70;53.80
21676;DHT22;10999;51.332;9.458;2023-02-14T13:49:27;9.70;55.60
21676;DHT22;10999;51.332;9.458;2023-02-14T13:51:57;9.70;55.10
21676;DHT22;10999;51.332;9.458;2023-02-14T13:56:56;9.70;55.30
21676;DHT22;10999;51.332;9.458;2023-02-14T13:59:28;9.70;55.60
21676;DHT22;10999;51.332;9.458;2023-02-14T14:01:55;9.70;55.50
21676;DHT22;10999;51.332;9.458;2023-02-14T14:04:42;9.60;55.70
21676;DHT22;10999;51.332;9.458;2023-02-14T14:07:27;9.60;56.20
21676;DHT22;10999;51.332;9.458;2023-02-14T14:10:00;9.50;55.80
21676;DHT22;10999;51.332;9.458;2023-02-14T14:22:48;9.50;58.70
21676;DHT22;10999;51.332;9.458;2023-02-14T14:25:33;9.50;58.60
21676;DHT22;10999;51.332;9.458;2023-02-14T14:30:37;9.50;58.90
21676;DHT22;10999;51.332;9.458;2023-02-14T14:35:55;9.50;59.20
21676;DHT22;10999;51.332;9.458;2023-02-14T14:38:23;9.40;59.00
21676;DHT22;10999;51.332;9.458;2023-02-14T14:40:51;9.40;58.90
21676;DHT22;10999;51.332;9.458;2023-02-14T14:43:38;9.50;59.80
21676;DHT22;10999;51.332;9.458;2023-02-14T14:46:09;9.40;59.00
21676;DHT22;10999;51.332;9.458;2023-02-14T14:48:43;9.40;59.00
21676;DHT22;10999;51.332;9.458;2023-02-14T14:51:32;9.40;59.60
21676;DHT22;10999;51.332;9.458;2023-02-14T14:54:03;9.40;58.90
21676;DHT22;10999;51.332;9.458;2023-02-14T14:56:37;9.20;59.00
21676;DHT22;10999;51.332;9.458;2023-02-14T14:59:18;9.20;59.80
21676;DHT22;10999;51.332;9.458;2023-02-14T15:01:46;9.10;60.40
21676;DHT22;10999;51.332;9.458;2023-02-14T15:06:40;8.90;60.40
21676;DHT22;10999;51.332;9.458;2023-02-14T15:09:29;8.80;61.40
21676;DHT22;10999;51.332;9.458;2023-02-14T15:11:58;8.60;62.40
21676;DHT22;10999;51.332;9.458;2023-02-14T15:14:48;8.60;64.30
21676;DHT22;10999;51.332;9.458;2023-02-14T15:17:24;8.50;64.30
21676;DHT22;10999;51.332;9.458;2023-02-14T15:19:55;8.40;65.00
21676;DHT22;10999;51.332;9.458;2023-02-14T15:22:25;8.30;65.50
21676;DHT22;10999;51.332;9.458;2023-02-14T15:24:52;8.30;66.30
21676;DHT22;10999;51.332;9.458;2023-02-14T15:27:24;8.20;66.40
21676;DHT22;10999;51.332;9.458;2023-02-14T15:29:57;8.10;67.00
21676;DHT22;10999;51.332;9.458;2023-02-14T15:32:26;8.10;67.20
21676;DHT22;10999;51.332;9.458;2023-02-14T15:34:55;8.10;67.50
21676;DHT22;10999;51.332;9.458;2023-02-14T15:37:23;8.00;67.70
21676;DHT22;10999;51.332;9.458;2023-02-14T15:39:52;7.90;68.10
21676;DHT22;10999;51.332;9.458;2023-02-14T15:42:28;7.80;68.80
21676;DHT22;10999;51.332;9.458;2023-02-14T15:45:21;7.80;69.30
21676;DHT22;10999;51.332;9.458;2023-02-14T15:50:22;7.50;70.30
21676;DHT22;10999;51.332;9.458;2023-02-14T15:52:59;7.40;71.00
21676;DHT22;10999;51.332;9.458;2023-02-14T15:55:30;7.40;71.70
21676;DHT22;10999;51.332;9.458;2023-02-14T15:58:03;7.30;72.70
21676;DHT22;10999;51.332;9.458;2023-02-14T16:00:31;7.20;73.00
21676;DHT22;10999;51.332;9.458;2023-02-14T16:03:04;7.20;73.50
21676;DHT22;10999;51.332;9.458;2023-02-14T16:05:31;7.10;73.80
21676;DHT22;10999;51.332;9.458;2023-02-14T16:08:17;7.00;74.00
21676;DHT22;10999;51.332;9.458;2023-02-14T16:13:33;6.90;74.50
21676;DHT22;10999;51.332;9.458;2023-02-14T16:16:06;6.80;75.10
21676;DHT22;10999;51.332;9.458;2023-02-14T16:18:35;6.70;75.70
21676;DHT22;10999;51.332;9.458;2023-02-14T16:26:33;6.50;77.00
21676;DHT22;10999;51.332;9.458;2023-02-14T16:29:09;6.40;76.80
21676;DHT22;10999;51.332;9.458;2023-02-14T16:31:46;6.30;76.90
21676;DHT22;10999;51.332;9.458;2023-02-14T16:34:33;6.20;77.70
21676;DHT22;10999;51.332;9.458;2023-02-14T16:37:23;6.10;78.50
21676;DHT22;10999;51.332;9.458;2023-02-14T16:39:52;6.00;79.10
21676;DHT22;10999;51.332;9.458;2023-02-14T16:42:19;5.90;79.50
21676;DHT22;10999;51.332;9.458;2023-02-14T16:44:47;5.80;79.90
21676;DHT22;10999;51.332;9.458;2023-02-14T16:47:15;5.80;80.10
21676;DHT22;10999;51.332;9.458;2023-02-14T16:49:42;5.80;81.20
21676;DHT22;10999;51.332;9.458;2023-02-14T16:52:20;5.70;81.40
21676;DHT22;10999;51.332;9.458;2023-02-14T16:54:49;5.70;81.70
21676;DHT22;10999;51.332;9.458;2023-02-14T16:57:42;5.60;82.20
21676;DHT22;10999;51.332;9.458;2023-02-14T17:00:11;5.50;82.70
21676;DHT22;10999;51.332;9.458;2023-02-14T17:02:38;5.40;83.40
21676;DHT22;10999;51.332;9.458;2023-02-14T17:05:09;5.30;83.50
21676;DHT22;10999;51.332;9.458;2023-02-14T17:07:37;5.30;84.00
21676;DHT22;10999;51.332;9.458;2023-02-14T17:10:10;5.20;83.80
21676;DHT22;10999;51.332;9.458;2023-02-14T17:12:43;5.10;84.10
21676;DHT22;10999;51.332;9.458;2023-02-14T17:15:19;5.10;84.30
21676;DHT22;10999;51.332;9.458;2023-02-14T17:17:48;5.00;85.00
21676;DHT22;10999;51.332;9.458;2023-02-14T17:20:15;4.90;85.20
21676;DHT22;10999;51.332;9.458;2023-02-14T17:22:45;4.90;85.10
21676;DHT22;10999;51.332;9.458;2023-02-14T17:25:12;4.80;85.60
21676;DHT22;10999;51.332;9.458;2023-02-14T17:27:39;4.70;85.90
21676;DHT22;10999;51.332;9.458;2023-02-14T17:30:10;4.60;86.20
21676;DHT22;10999;51.332;9.458;2023-02-14T17:32:38;4.60;86.30
21676;DHT22;10999;51.332;9.458;2023-02-14T17:35:05;4.50;87.10
21676;DHT22;10999;51.332;9.458;2023-02-14T17:37:35;4.40;87.20
21676;DHT22;10999;51.332;9.458;2023-02-14T17:40:04;4.30;87.90
21676;DHT22;10999;51.332;9.458;2023-02-14T17:42:32;4.30;88.10
21676;DHT22;10999;51.332;9.458;2023-02-14T17:44:59;4.20;88.20
21676;DHT22;10999;51.332;9.458;2023-02-14T17:47:28;4.20;88.80
21676;DHT22;10999;51.332;9.458;2023-02-14T17:49:55;4.10;89.40
21676;DHT22;10999;51.332;9.458;2023-02-14T17:52:23;4.10;89.70
21676;DHT22;10999;51.332;9.458;2023-02-14T17:54:50;4.00;89.70
21676;DHT22;10999;51.332;9.458;2023-02-14T17:57:17;4.00;89.90
21676;DHT22;10999;51.332;9.458;2023-02-14T17:59:44;3.90;90.30
21676;DHT22;10999;51.332;9.458;2023-02-14T18:02:12;3.90;90.30
21676;DHT22;10999;51.332;9.458;2023-02-14T18:04:39;3.80;91.20
21676;DHT22;10999;51.332;9.458;2023-02-14T18:07:07;3.80;90.70
21676;DHT22;10999;51.332;9.458;2023-02-14T18:09:34;3.80;90.70
21676;DHT22;10999;51.332;9.458;2023-02-14T18:12:01;3.70;90.60
21676;DHT22;10999;51.332;9.458;2023-02-14T18:14:27;3.60;90.70
21676;DHT22;10999;51.332;9.458;2023-02-14T18:16:54;3.50;90.50
21676;DHT22;10999;51.332;9.458;2023-02-14T18:19:21;3.40;91.00